Logo AVAMET
Benvolgut visitant, si us plau, ingressa Recuperar contrasenya
AVAMET paisatges

Montserrat Casadalt

Dades diàries. Acumulats / Últims 30 dies disponibles

Data Temperatura (°C) Humitat rel. (%) Pressió rel. (hPa) Vent (km/h) Precipitació
Mínima Mitjana Màxima Amplitud
tèrmica
Mínima Mitjana Màxima Mínima Mitjana Màxima Predom. Mitjana Ràfega
màxima
Total
(mm)
Índex-n
Mínima Mitjana Màxima Mínima Mitjana Màxima n
0 a 1
P0 max
mm 5'
Dades mensuals acumulades fins l'últim dia disponible
10/2020 8,6 13,4 18,4 18,1 21,1 24,9 31,8 23,2 18 55 94 990 1.014 1.023   9,8 72,4 5,8
Dades anuals acumulades fins l'últim dia disponible
2020 3,1 14,6 24,1 18,7 7,2 24,3 36,3 33,2 13 66 99 990 1.016 1.033   7,6 98,2 522,2
Últims 30 dies disponibles
19-10-2020 13,8     16,8     22,0 8,2 53 76 88 1.017 1.019 1.020 WNW 5,8 27,4 0,0
18-10-2020 11,6     16,3     23,1 11,5 44 66 87 1.018 1.019 1.020 WSW 7,4 25,7 0,0
17-10-2020 9,9     15,6     25,0 15,1 20 54 74 1.014 1.015 1.018 WSW 9,0 29,0 0,0
16-10-2020 8,6     14,1     22,6 14,0 19 46 70 1.014 1.015 1.017 WSW 8,7 32,2 0,0
15-10-2020 11,6     16,2     22,4 10,8 21 35 50 1.011 1.013 1.015 NW 11,4 41,8 0,0
14-10-2020 13,8     17,0     21,1 7,3 46 62 75 1.006 1.008 1.012 WSW 6,4 37,0 0,0
13-10-2020 13,5     19,6     28,1 14,6 24 40 71 1.008 1.012 1.017 WSW 12,2 37,0 0,0
12-10-2020 11,9     16,7     24,1 12,2 21 40 55 1.016 1.019 1.021 NW 7,9 30,6 0,0
11-10-2020 14,3     17,7     22,7 8,4 24 52 93 1.018 1.019 1.021 N 5,8 27,4 0,0
10-10-2020 18,1     19,9     23,5 5,4 65 80 91 1.018 1.020 1.021 NW 3,4 20,9 0,0
09-10-2020 16,1     20,1     25,7 9,6 54 80 94 1.018 1.020 1.021 WSW 6,9 24,1 0,2
08-10-2020 17,1     20,6     26,5 9,4 52 70 92 1.020 1.021 1.023 N 4,8 30,6 0,0
07-10-2020 18,4     22,7     29,8 11,4 24 47 65 1.017 1.019 1.021 WSW 9,2 30,6 0,0
06-10-2020 13,8     20,2     30,2 16,4 25 45 65 1.016 1.018 1.020 WSW 9,5 32,2 0,0
05-10-2020 13,5     17,9     25,1 11,6 21 51 67 1.010 1.013 1.019 WSW 10,9 37,0 0,0
04-10-2020 10,7     16,5     23,1 12,4 34 50 66 1.005 1.008 1.010 WSW 14,5 56,3 0,0
03-10-2020 10,2     15,6     22,3 12,1 28 47 63 999 1.003 1.009 W 17,9 49,9 0,0
02-10-2020 11,7     17,9     24,8 13,1 40 57 87 990 996 1.003 WSW 20,4 72,4 5,4
01-10-2020 15,7     23,1     31,8 16,1 18 44 92 1.003 1.007 1.011 WSW 13,5 48,3 0,2
30-09-2020 14,7     19,4     25,6 10,9 49 74 89 1.011 1.013 1.016 WSW 6,0 25,7 0,0
29-09-2020 15,2     19,1     24,5 9,3 43 64 81 1.015 1.016 1.018 WNW 5,5 24,1 0,0
28-09-2020 12,4     18,4     26,6 14,2 21 48 75 1.012 1.014 1.017 WSW 8,0 35,4 0,0
27-09-2020 15,4     19,7     24,5 9,1 17 42 60 1.006 1.009 1.013 W 14,2 56,3 0,0
26-09-2020 14,7     20,1     27,2 12,5 23 32 44 1.009 1.014 1.018 NW 11,4 41,8 0,0
25-09-2020 17,2     21,5     26,8 9,6 17 38 65 1.010 1.013 1.018 W 14,2 49,9 0,0
24-09-2020 19,4     23,4     29,7 10,3 34 52 65 1.009 1.011 1.012 WSW 15,6 64,4 0,0
23-09-2020 18,7     24,2     31,6 12,9 29 50 88 1.008 1.010 1.011 WSW 8,5 30,6 0,0
22-09-2020 17,4     23,3     31,2 13,8 25 58 88 1.009 1.012 1.014 WSW 8,4 38,6 0,0
21-09-2020 18,7     22,8     29,4 10,7 36 60 83 1.012 1.013 1.014 WSW 10,1 32,2 0,0
20-09-2020 17,9     23,6     30,7 12,8 28 53 76 1.012 1.014 1.015 WSW 13,5 40,2 0,0
Últims 13 mesos disponibles
09/2020 12,4 18,0 21,5 22,4 23,7 28,4 31,6 19,2 32 61 85 1.009 1.015 1.021 WSW 8,1 64,4 14,8
08/2020 15,1 21,6 24,1 26,0 25,6 31,7 36,3 21,2 35 64 76 1.002 1.012 1.016 E 6,8 43,5 4,4
07/2020 18,2 21,1 22,9 25,4 27,3 30,9 35,1 16,9 46 67 82 1.009 1.014 1.018 ESE 4,3 54,7 16,4
06/2020 13,8 17,8 21,1 22,6 21,5 28,9 34,2 20,4 34 63 81 1.003 1.012 1.019 ESE 6,5 53,1 8,4
05/2020 11,4 15,7 19,2 20,2 17,6 25,9 32,6 21,2 46 63 81 1.003 1.015 1.025 W 6,4 59,5 22,6
04/2020 7,5 11,4 15,4 14,7 14,1 19,7 25,9 18,4 45 76 97 1.004 1.014 1.024 N 5,6 51,5 68,8
03/2020 5,6 9,6 15,3 12,8 8,8 17,3 26,3 20,7 40 70 97 1.004 1.015 1.025 N 10,1 98,2 86,8
02/2020 6,0 9,7 13,0 13,8 11,9 20,3 26,4 20,4 36 67 96 1.012 1.024 1.031 W 8,5 56,3 11,6
01/2020 3,1 6,9 12,8 10,2 7,2 15,1 20,0 16,9 46 72 98 1.015 1.024 1.031 W 11,1 80,5 282,4
12/2019 5,6 9,7 15,5 12,5 10,4 16,7 23,2 17,6 50 70 98 1.000 1.017 1.031 W 12,4 98,2 85,8
11/2019 4,4 10,4 18,7 14,0 14,8 19,1 28,6 24,2 40 56 76 996 1.009 1.017 W 13,1 78,9 8,2
10/2019 9,9 15,2 18,9 19,2 14,3 25,2 34,6 24,7 36 65 87 1.006 1.014 1.020 W 6,3 54,7 28,4
09/2019 13,8 18,9 21,9 22,5 19,2 27,4 33,6 19,8 30 70 87 1.008 1.015 1.023 W 7,1 69,2 90,8
Tots els anys disponibles
2019 1,6 13,4 25,1 17,6 10,4 23,2 41,7 40,1 30 61 99 993 1.015 1.032 W 8,9 98,2 452,4
2018 1,1 13,5 25,3 17,4 7,4 22,8 38,0 36,9 37 70 99 998 1.016 1.029 W 10,2 86,9 734,0
2017 -0,7 13,5 25,3 17,6 6,6 23,1 38,0 38,7 9,1 85,3 336,2
2016 1,8 13,8 27,1 17,7 9,6 22,9 39,6 37,8 9,8 83,7 541,0
2015 0,7 13,6 21,1 17,6 21,0 22,9 41,8 41,1 6,2 83,7 468,4
2014 1,3 13,8 23,5 17,8 8,8 23,2 41,1 39,8 7,6 82,1 324,0
2013 1,2 12,9 16,8 16,8 18,7 22,2 36,1 34,9 8,4 78,9 337,8
2012 -2,3 13,0 18,1 17,1 21,4 22,5 37,2 39,5 7,2 82,1 431,2
2011 -1,1 13,5 22,8 17,1 6,6 22,2 39,0 40,1 8,4 83,7 426,0
2010 -1,8 12,4 26,2 16,3 3,7 21,4 42,0 43,8 9,2 109,4 559,4
2009 -2,2 13,2 23,7 17,1 4,6 22,5 41,7 43,9 9,7 99,8 807,4
2008 1,6 12,5 17,1 21,7 37,0 35,4 10,6 74,0 733,8
2007 2,1 13,0 17,4 21,7 37,6 35,5 42 67 88 1.027 1.027 1.027 2,3 37,0 698,8
2006 -3,2 13,4 17,8 22,2 35,6 38,8 48 70 97 3,1 45,0 531,7
2005 -4,9 12,1 16,6 21,1 36,5 41,4 357,2
Temperatura (°C)
Humitat relativa (%)
Velocitat del vent i ràfega màxima (km/h)
Direcció del vent (°)
Pressió (hPa)
Precipitació (mm)
Nota sobre les dades: s'avisa a l'usuari de la provisionalitat i no oficialitat d'aquestes dades
Logo AVAMET blanc
Web allotjada a Sollutia
Llicència de Creative CommonsLa web d'AVAMET i els seus continguts estan subjectes a una llicència de
Reconeixement - No Comercial - Compartir igual
Últimes estacions: La Vilavella - Centre (Ajuntament Soci), Alfondeguilla (Soci), Santa Magdalena de Polpís (Soci),  Benafigos (Aj. Soci), Carlet - Ajuntament (Inforatge), Montroi (Inforatge), Bronchales (Limítrofe-Terol/Aj. Soci), Sueca - Muntanyeta dels Sants (Inforatge), Vilamarxant - Ajuntament (Aj. Soci/Inforatge) - - -